createdAt,value
2023-04-19T00:00:00.127Z,1008.31
2023-04-19T00:05:00.257Z,1008.24
2023-04-19T00:10:00.130Z,1008.22
2023-04-19T00:15:00.137Z,1008.17
2023-04-19T00:20:00.152Z,1008.17
2023-04-19T00:25:00.169Z,1008.14
2023-04-19T00:30:00.194Z,1008.19
2023-04-19T00:35:00.166Z,1008.21
2023-04-19T00:40:00.185Z,1008.21
2023-04-19T00:45:00.118Z,1008.24
2023-04-19T00:50:00.190Z,1008.16
2023-04-19T00:55:00.155Z,1008.13
2023-04-19T01:00:00.229Z,1008.22
2023-04-19T01:05:00.155Z,1008.11
2023-04-19T01:10:00.158Z,1008.16
2023-04-19T01:15:00.109Z,1008.07
2023-04-19T01:20:00.146Z,1008.13
2023-04-19T01:25:00.155Z,1007.98
2023-04-19T01:30:00.168Z,1007.95
2023-04-19T01:35:00.121Z,1007.89
2023-04-19T01:40:00.181Z,1007.91
2023-04-19T01:45:00.145Z,1007.81
2023-04-19T01:50:00.189Z,1007.9
2023-04-19T01:55:00.131Z,1007.96
2023-04-19T02:00:00.164Z,1007.9
2023-04-19T02:05:00.172Z,1007.86
2023-04-19T02:10:00.181Z,1007.94
2023-04-19T02:15:00.110Z,1007.82
2023-04-19T02:20:00.173Z,1007.91
2023-04-19T02:25:00.136Z,1007.82
2023-04-19T02:30:00.185Z,1007.78
2023-04-19T02:35:00.144Z,1007.72
2023-04-19T02:40:00.153Z,1007.62
2023-04-19T02:45:00.137Z,1007.72
2023-04-19T02:50:00.129Z,1007.7
2023-04-19T02:55:00.135Z,1007.8
2023-04-19T03:00:00.147Z,1007.68
2023-04-19T03:05:00.100Z,1007.68
2023-04-19T03:10:00.161Z,1007.66
2023-04-19T03:15:00.142Z,1007.7
2023-04-19T03:20:00.115Z,1007.58
2023-04-19T03:25:00.083Z,1006.96
2023-04-19T03:30:00.211Z,1006.92
2023-04-19T03:35:00.138Z,1006.83
2023-04-19T03:40:00.144Z,1006.8
2023-04-19T03:45:00.095Z,1006.9
2023-04-19T03:50:00.167Z,1006.87
2023-04-19T03:55:00.122Z,1006.81
2023-04-19T04:00:00.136Z,1006.83
2023-04-19T04:05:00.274Z,1006.79
2023-04-19T04:10:00.138Z,1006.79
2023-04-19T04:15:00.109Z,1006.85
2023-04-19T04:20:00.106Z,1006.83
2023-04-19T04:25:00.102Z,1006.83
2023-04-19T04:30:00.174Z,1006.86
2023-04-19T04:35:00.122Z,1006.91
2023-04-19T04:40:00.115Z,1006.89
2023-04-19T04:45:00.159Z,1006.86
2023-04-19T04:50:00.206Z,1006.94
2023-04-19T04:55:00.129Z,1006.96
2023-04-19T05:00:00.147Z,1006.93
2023-04-19T05:05:00.111Z,1006.78
2023-04-19T05:10:00.136Z,1006.92
2023-04-19T05:15:00.114Z,1006.85
2023-04-19T05:20:00.161Z,1006.84
2023-04-19T05:25:00.099Z,1006.93
2023-04-19T05:30:00.175Z,1006.93
2023-04-19T05:35:00.148Z,1006.99
2023-04-19T05:40:00.165Z,1006.92
2023-04-19T05:45:00.099Z,1006.83
2023-04-19T05:50:00.179Z,1006.83
2023-04-19T05:55:00.184Z,1006.83
2023-04-19T06:05:02.578Z,1006.87
2023-04-19T06:10:00.173Z,1006.76
2023-04-19T06:15:00.149Z,1006.71
2023-04-19T06:20:00.174Z,1006.83
2023-04-19T06:25:00.138Z,1006.82
2023-04-19T06:30:00.247Z,1006.73
2023-04-19T06:35:00.147Z,1006.73
2023-04-19T06:40:00.168Z,1006.8
2023-04-19T06:45:00.125Z,1006.83
2023-04-19T06:50:00.258Z,1006.72
2023-04-19T06:55:00.165Z,1006.75
2023-04-19T07:00:00.113Z,1006.63
2023-04-19T07:05:00.114Z,1006.8
2023-04-19T07:10:00.149Z,1006.79
2023-04-19T07:15:00.128Z,1006.71
2023-04-19T07:20:00.178Z,1006.56
2023-04-19T07:25:00.131Z,1006.53
2023-04-19T07:30:00.173Z,1006.56
2023-04-19T07:35:00.152Z,1006.55
2023-04-19T07:40:00.134Z,1006.53
2023-04-19T07:45:00.114Z,1006.49
2023-04-19T07:50:00.329Z,1006.5
2023-04-19T07:55:00.140Z,1006.43
2023-04-19T08:00:00.170Z,1006.46
2023-04-19T08:05:00.181Z,1006.47
2023-04-19T08:10:00.262Z,1006.5
2023-04-19T08:15:07.713Z,1006.39
2023-04-19T08:20:00.144Z,1006.21
2023-04-19T08:25:00.105Z,1006.18
2023-04-19T08:30:00.232Z,1006.2
2023-04-19T08:35:00.157Z,1006.21
2023-04-19T08:40:00.150Z,1006.08
2023-04-19T08:45:23.041Z,1006.04
2023-04-19T08:50:09.069Z,1005.89
2023-04-19T08:55:00.129Z,1005.95
2023-04-19T09:00:00.162Z,1005.81
2023-04-19T09:05:00.312Z,1005.86
2023-04-19T09:10:03.204Z,1005.73
2023-04-19T09:15:02.097Z,1005.71
2023-04-19T09:20:00.175Z,1005.67
2023-04-19T09:30:00.304Z,1005.67
2023-04-19T09:35:00.162Z,1005.52
2023-04-19T09:40:00.137Z,1005.43
2023-04-19T09:45:21.279Z,1005.46
2023-04-19T09:50:00.707Z,1005.35
2023-04-19T09:55:00.135Z,1005.22
2023-04-19T10:00:00.165Z,1005.26
2023-04-19T10:05:16.152Z,1005.19
2023-04-19T10:10:08.437Z,1005.12
2023-04-19T10:15:00.093Z,1005.09
2023-04-19T10:20:00.190Z,1004.89
2023-04-19T10:25:00.146Z,1004.88
2023-04-19T10:30:00.184Z,1004.81
2023-04-19T10:35:00.191Z,1004.81
2023-04-19T10:40:00.166Z,1004.72
2023-04-19T10:45:00.116Z,1004.72
2023-04-19T10:50:00.176Z,1004.49
2023-04-19T10:55:00.139Z,1004.44
2023-04-19T11:00:00.164Z,1004.46
2023-04-19T11:05:00.130Z,1004.38
2023-04-19T11:10:00.175Z,1004.31
2023-04-19T11:15:00.191Z,1004.27
2023-04-19T11:20:00.200Z,1004.2
2023-04-19T11:25:00.168Z,1004.04
2023-04-19T11:30:00.220Z,1004.07
2023-04-19T11:35:00.127Z,1004.08
2023-04-19T11:40:00.857Z,1004.01
2023-04-19T11:45:00.112Z,1003.96
2023-04-19T11:50:00.165Z,1004
2023-04-19T11:55:00.161Z,1003.9
2023-04-19T12:00:00.176Z,1004.03
2023-04-19T12:05:00.331Z,1004.05
2023-04-19T12:10:00.157Z,1003.89
2023-04-19T12:15:00.131Z,1003.9
2023-04-19T12:20:00.172Z,1004.24
2023-04-19T12:25:00.100Z,1004.11
2023-04-19T12:30:00.199Z,1003.85
2023-04-19T12:35:00.136Z,1003.84
2023-04-19T12:40:00.145Z,1003.6
2023-04-19T12:45:00.154Z,1003.56
2023-04-19T12:50:00.162Z,1003.53
2023-04-19T12:55:00.170Z,1003.41
2023-04-19T13:00:00.192Z,1003.4
2023-04-19T13:05:00.214Z,1003.33
2023-04-19T13:10:00.199Z,1003.19
2023-04-19T13:15:01.452Z,1003.32
2023-04-19T13:20:00.129Z,1003.12
2023-04-19T13:25:00.135Z,1003.06
2023-04-19T13:30:00.196Z,1002.99
2023-04-19T13:35:00.143Z,1002.84
2023-04-19T13:40:11.027Z,1002.92
2023-04-19T13:45:00.108Z,1002.92
2023-04-19T13:50:00.323Z,1002.86
2023-04-19T13:55:00.187Z,1002.81
2023-04-19T14:00:00.176Z,1002.73
2023-04-19T14:05:00.161Z,1002.72
2023-04-19T14:10:00.166Z,1002.66
2023-04-19T14:15:00.161Z,1002.68
2023-04-19T14:20:00.153Z,1002.66
2023-04-19T14:25:00.117Z,1002.68
2023-04-19T14:30:00.247Z,1002.66
2023-04-19T14:35:00.156Z,1002.67
2023-04-19T14:40:00.138Z,1002.57
2023-04-19T14:45:00.098Z,1002.74
2023-04-19T14:50:00.253Z,1002.78
2023-04-19T14:55:00.193Z,1002.96
2023-04-19T15:00:00.261Z,1002.95
2023-04-19T15:05:00.280Z,1002.94
2023-04-19T15:10:00.306Z,1002.98
2023-04-19T15:15:00.139Z,1002.97
2023-04-19T15:20:00.186Z,1002.85
2023-04-19T15:25:00.135Z,1002.78
2023-04-19T15:30:00.195Z,1002.78
2023-04-19T15:35:00.162Z,1002.69
2023-04-19T15:40:00.162Z,1002.6
2023-04-19T15:45:00.130Z,1002.65
2023-04-19T15:50:00.167Z,1002.53
2023-04-19T15:55:00.158Z,1002.45
2023-04-19T16:00:00.180Z,1002.39
2023-04-19T16:05:00.254Z,1002.33
2023-04-19T16:10:00.173Z,1002.19
2023-04-19T16:15:00.154Z,1002.29
2023-04-19T16:20:00.136Z,1002.31
2023-04-19T16:25:00.153Z,1002.26
2023-04-19T16:30:00.191Z,1002.23
2023-04-19T16:35:00.143Z,1002.27
2023-04-19T16:40:00.170Z,1002.3
2023-04-19T16:45:00.152Z,1002.29
2023-04-19T16:50:00.287Z,1002.21
2023-04-19T16:55:00.106Z,1002.27
2023-04-19T17:00:00.199Z,1002.26
2023-04-19T17:05:00.392Z,1002.21
2023-04-19T17:10:00.159Z,1002.11
2023-04-19T17:15:00.160Z,1001.97
2023-04-19T17:20:00.194Z,1002.06
2023-04-19T17:25:00.108Z,1002.06
2023-04-19T17:30:00.210Z,1001.95
2023-04-19T17:35:00.131Z,1002.04
2023-04-19T17:40:00.105Z,1002.13
2023-04-19T17:45:00.178Z,1002.12
2023-04-19T17:50:00.201Z,1002.05
2023-04-19T17:55:00.120Z,1002.03
2023-04-19T18:00:00.131Z,1002.06
2023-04-19T18:05:00.309Z,1001.97
2023-04-19T18:10:00.208Z,1002
2023-04-19T18:15:00.122Z,1001.98
2023-04-19T18:20:00.206Z,1001.99
2023-04-19T18:25:00.175Z,1002.01
2023-04-19T18:30:00.256Z,1002
2023-04-19T18:35:00.201Z,1002.05
2023-04-19T18:40:00.283Z,1002.34
2023-04-19T18:45:00.152Z,1002.3
2023-04-19T18:50:05.532Z,1002.32
2023-04-19T18:55:00.149Z,1002.27
2023-04-19T19:00:00.158Z,1002.36
2023-04-19T19:05:01.862Z,1002.42
2023-04-19T19:10:01.413Z,1002.5
2023-04-19T19:15:00.170Z,1002.56
2023-04-19T19:20:00.224Z,1002.63
2023-04-19T19:25:00.170Z,1002.57
2023-04-19T19:30:00.151Z,1002.49
2023-04-19T19:35:02.320Z,1002.37
2023-04-19T19:40:03.594Z,1002.39
2023-04-19T19:45:00.122Z,1002.29
2023-04-19T19:55:00.124Z,1002.38
2023-04-19T20:00:09.544Z,1002.31
2023-04-19T20:05:00.242Z,1002.25
2023-04-19T20:10:00.157Z,1002.21
2023-04-19T20:15:00.151Z,1002.2
2023-04-19T20:20:00.185Z,1002.22
2023-04-19T20:25:00.138Z,1002.71
2023-04-19T20:30:00.176Z,1002.75
2023-04-19T20:35:00.145Z,1002.87
2023-04-19T20:40:00.164Z,1002.83
2023-04-19T20:45:00.187Z,1002.87
2023-04-19T20:50:00.251Z,1002.9
2023-04-19T20:55:00.150Z,1002.97
2023-04-19T21:00:00.164Z,1002.8
2023-04-19T21:05:00.254Z,1002.78
2023-04-19T21:10:00.180Z,1002.75
2023-04-19T21:15:00.156Z,1002.78
2023-04-19T21:20:00.148Z,1002.76
2023-04-19T21:25:00.149Z,1002.63
2023-04-19T21:30:00.262Z,1002.64
2023-04-19T21:35:00.185Z,1002.67
2023-04-19T21:40:00.187Z,1002.55
2023-04-19T21:45:00.165Z,1002.65
2023-04-19T21:50:00.287Z,1002.71
2023-04-19T21:55:00.119Z,1002.57
2023-04-19T22:00:00.167Z,1002.54
2023-04-19T22:05:00.144Z,1002.66
2023-04-19T22:10:00.175Z,1002.65
2023-04-19T22:15:00.163Z,1002.64
2023-04-19T22:20:00.130Z,1002.61
2023-04-19T22:25:00.139Z,1002.55
2023-04-19T22:30:00.174Z,1002.59
2023-04-19T22:35:00.140Z,1002.58
2023-04-19T22:40:00.128Z,1002.48
2023-04-19T22:45:00.183Z,1002.53
2023-04-19T22:50:00.136Z,1002.49
2023-04-19T22:55:00.192Z,1002.48
2023-04-19T23:00:00.177Z,1002.5
2023-04-19T23:05:00.347Z,1002.45
2023-04-19T23:10:00.220Z,1002.42
2023-04-19T23:15:00.155Z,1002.36
2023-04-19T23:20:00.153Z,1002.31
2023-04-19T23:25:00.159Z,1002.29
2023-04-19T23:30:00.339Z,1002.32
2023-04-19T23:35:00.205Z,1002.23
2023-04-19T23:40:00.135Z,1002.27
2023-04-19T23:45:00.113Z,1002.27
2023-04-19T23:50:00.332Z,1002.3
2023-04-19T23:55:00.156Z,1002.22
